createdAt,value
2018-09-28T04:00:52.861Z,0.00
2018-09-28T04:01:52.740Z,0.00
2018-09-28T04:03:45.436Z,0.00
2018-09-28T04:04:45.309Z,0.00
2018-09-28T04:06:37.996Z,0.00
2018-09-28T04:07:37.886Z,0.00
2018-09-28T04:09:30.587Z,0.00
2018-09-28T04:10:30.453Z,0.00
2018-09-28T04:12:23.170Z,0.00
2018-09-28T04:13:23.063Z,0.00
2018-09-28T04:15:16.411Z,0.00
2018-09-28T04:16:16.175Z,0.00
2018-09-28T04:18:08.879Z,0.00
2018-09-28T04:19:08.768Z,0.00
2018-09-28T04:21:01.431Z,0.00
2018-09-28T04:22:01.338Z,0.00
2018-09-28T04:23:54.167Z,0.00
2018-09-28T04:24:53.900Z,0.00
2018-09-28T04:26:46.568Z,0.00
2018-09-28T04:27:46.471Z,0.00
2018-09-28T04:29:39.155Z,0.00
2018-09-28T04:30:39.028Z,0.00
2018-09-28T04:32:31.701Z,0.00
2018-09-28T04:33:31.589Z,0.00
2018-09-28T04:35:24.281Z,0.00
2018-09-28T04:36:24.153Z,0.00
2018-09-28T04:38:17.364Z,0.00
2018-09-28T04:39:17.225Z,0.00
2018-09-28T04:41:09.901Z,0.00
2018-09-28T04:42:09.792Z,0.00
2018-09-28T04:44:02.492Z,0.00
2018-09-28T04:45:02.380Z,0.00
2018-09-28T04:46:55.025Z,0.00
2018-09-28T04:47:54.918Z,0.00
2018-09-28T04:49:48.092Z,0.00
2018-09-28T04:50:47.968Z,0.00
2018-09-28T04:52:41.137Z,0.00
2018-09-28T04:53:41.033Z,0.00
2018-09-28T04:55:33.734Z,0.00
2018-09-28T04:56:33.607Z,0.00
2018-09-28T04:58:26.297Z,4.00
2018-09-28T04:59:26.173Z,4.00
2018-09-28T05:01:18.849Z,4.00
2018-09-28T05:02:18.739Z,0.00
2018-09-28T05:04:11.427Z,4.00
2018-09-28T05:05:11.300Z,0.00
2018-09-28T05:07:03.970Z,4.00
2018-09-28T05:08:03.873Z,4.00
2018-09-28T05:09:56.550Z,8.00
2018-09-28T05:10:56.431Z,12.00
2018-09-28T05:12:49.098Z,24.00
2018-09-28T05:13:48.986Z,32.00
2018-09-28T05:15:41.678Z,32.00
2018-09-28T05:16:41.553Z,40.00
2018-09-28T05:18:34.893Z,64.00
2018-09-28T05:19:34.647Z,84.00
2018-09-28T05:21:27.319Z,112.00
2018-09-28T05:22:27.197Z,120.00
2018-09-28T05:24:19.879Z,144.00
2018-09-28T05:25:19.774Z,152.00
2018-09-28T05:27:12.450Z,160.00
2018-09-28T05:28:12.316Z,160.00
2018-09-28T05:30:04.996Z,172.00
2018-09-28T05:31:04.884Z,184.00
2018-09-28T05:32:57.827Z,188.00
2018-09-28T05:33:57.489Z,204.00
2018-09-28T05:35:50.173Z,240.00
2018-09-28T05:36:50.055Z,252.00
2018-09-28T05:38:42.722Z,276.00
2018-09-28T05:39:42.615Z,272.00
2018-09-28T05:41:35.309Z,292.00
2018-09-28T05:42:35.184Z,344.00
2018-09-28T05:44:27.871Z,408.00
2018-09-28T05:45:27.743Z,432.00
2018-09-28T05:47:20.915Z,508.00
2018-09-28T05:48:20.810Z,556.00
2018-09-28T05:50:13.495Z,580.00
2018-09-28T05:51:13.368Z,616.00
2018-09-28T05:53:06.042Z,664.00
2018-09-28T05:54:05.938Z,704.00
2018-09-28T05:55:58.628Z,816.00
2018-09-28T05:56:58.497Z,972.00
2018-09-28T05:58:51.178Z,928.00
2018-09-28T05:59:51.071Z,856.00
2018-09-28T06:01:43.760Z,1084.00
2018-09-28T06:02:43.630Z,1096.00
2018-09-28T06:04:36.330Z,1220.00
2018-09-28T06:05:36.231Z,1032.00
2018-09-28T06:07:28.870Z,792.00
2018-09-28T06:08:28.758Z,812.00
2018-09-28T06:10:21.452Z,796.00
2018-09-28T06:11:21.323Z,892.00
2018-09-28T06:13:13.990Z,876.00
2018-09-28T06:14:13.888Z,868.00
2018-09-28T06:16:06.578Z,836.00
2018-09-28T06:17:06.448Z,784.00
2018-09-28T06:18:59.164Z,748.00
2018-09-28T06:19:59.018Z,668.00
2018-09-28T06:21:51.701Z,668.00
2018-09-28T06:22:51.572Z,676.00
2018-09-28T06:24:44.761Z,624.00
2018-09-28T06:25:44.632Z,620.00
2018-09-28T06:27:37.306Z,700.00
2018-09-28T06:28:37.202Z,696.00
2018-09-28T06:30:29.888Z,588.00
2018-09-28T06:31:29.759Z,588.00
2018-09-28T06:33:22.425Z,580.00
2018-09-28T06:34:22.318Z,604.00
2018-09-28T06:36:15.020Z,612.00
2018-09-28T06:37:14.880Z,652.00
2018-09-28T06:39:08.046Z,752.00
2018-09-28T06:40:07.941Z,764.00
2018-09-28T06:42:00.659Z,960.00
2018-09-28T06:43:00.499Z,1172.00
2018-09-28T06:44:53.176Z,1604.00
2018-09-28T06:45:53.067Z,2084.00
2018-09-28T06:47:45.750Z,1752.00
2018-09-28T06:48:45.626Z,1932.00
2018-09-28T06:50:38.305Z,2404.00
2018-09-28T06:51:38.186Z,2552.00
2018-09-28T06:53:30.859Z,2532.00
2018-09-28T06:54:30.749Z,2512.00
2018-09-28T06:56:23.442Z,2636.00
2018-09-28T06:57:23.309Z,2660.00
2018-09-28T06:59:16.491Z,2680.00
2018-09-28T07:00:16.418Z,2412.00
2018-09-28T07:02:09.557Z,2312.00
2018-09-28T07:03:09.438Z,2384.00
2018-09-28T07:05:02.599Z,3040.00
2018-09-28T07:06:02.522Z,3256.00
2018-09-28T07:07:55.675Z,3244.00
2018-09-28T07:08:55.551Z,3388.00
2018-09-28T07:10:48.733Z,4440.00
2018-09-28T07:11:48.668Z,4208.00
2018-09-28T07:13:41.769Z,3000.00
2018-09-28T07:14:41.665Z,3120.00
2018-09-28T07:16:34.370Z,4104.00
2018-09-28T07:17:34.232Z,3740.00
2018-09-28T07:19:26.924Z,3284.00
2018-09-28T07:20:26.793Z,3660.00
2018-09-28T07:22:19.483Z,4312.00
2018-09-28T07:23:19.359Z,4652.00
2018-09-28T07:25:12.095Z,5264.00
2018-09-28T07:26:11.922Z,5444.00
2018-09-28T07:28:04.608Z,5496.00
2018-09-28T07:29:04.488Z,5440.00
2018-09-28T07:30:57.172Z,5420.00
2018-09-28T07:31:57.048Z,4884.00
2018-09-28T07:33:50.212Z,4636.00
2018-09-28T07:34:50.111Z,4692.00
2018-09-28T07:36:42.961Z,4840.00
2018-09-28T07:37:42.678Z,5416.00
2018-09-28T07:39:35.352Z,5324.00
2018-09-28T07:40:35.243Z,5452.00
2018-09-28T07:42:27.931Z,6528.00
2018-09-28T07:43:27.807Z,7684.00
2018-09-28T07:45:20.482Z,10364.00
2018-09-28T07:46:20.377Z,10160.00
2018-09-28T07:48:13.590Z,9556.00
2018-09-28T07:49:13.507Z,9176.00
2018-09-28T07:51:06.627Z,8040.00
2018-09-28T07:52:06.505Z,7688.00
2018-09-28T07:53:59.173Z,6296.00
2018-09-28T07:54:59.071Z,5560.00
2018-09-28T07:56:51.759Z,5716.00
2018-09-28T07:57:51.636Z,5356.00
2018-09-28T07:59:44.333Z,5028.00
2018-09-28T08:00:44.203Z,4468.00
2018-09-28T08:02:36.917Z,4724.00
2018-09-28T08:03:36.792Z,4788.00
2018-09-28T08:05:29.479Z,5404.00
2018-09-28T08:06:29.371Z,6024.00
2018-09-28T08:08:23.055Z,6264.00
2018-09-28T08:09:22.936Z,6108.00
2018-09-28T08:11:15.623Z,6476.00
2018-09-28T08:12:15.503Z,5924.00
2018-09-28T08:14:08.170Z,5868.00
2018-09-28T08:15:08.070Z,6248.00
2018-09-28T08:17:00.757Z,7308.00
2018-09-28T08:18:00.659Z,7820.00
2018-09-28T08:19:53.309Z,7964.00
2018-09-28T08:20:53.204Z,8108.00
2018-09-28T08:22:45.897Z,7640.00
2018-09-28T08:23:45.772Z,7036.00
2018-09-28T08:25:38.447Z,6528.00
2018-09-28T08:26:38.340Z,6804.00
2018-09-28T08:28:31.057Z,7644.00
2018-09-28T08:29:30.914Z,7956.00
2018-09-28T08:31:23.584Z,8916.00
2018-09-28T08:32:23.481Z,9076.00
2018-09-28T08:34:16.164Z,8416.00
2018-09-28T08:35:16.051Z,8940.00
2018-09-28T08:37:08.734Z,8108.00
2018-09-28T08:38:08.613Z,7144.00
2018-09-28T08:40:01.287Z,6624.00
2018-09-28T08:41:01.185Z,6952.00
2018-09-28T08:42:53.876Z,6924.00
2018-09-28T08:43:53.753Z,7688.00
2018-09-28T08:45:46.429Z,8472.00
2018-09-28T08:46:46.326Z,8796.00
2018-09-28T08:48:39.169Z,7036.00
2018-09-28T08:49:38.891Z,7292.00
2018-09-28T08:51:31.573Z,8156.00
2018-09-28T08:52:31.469Z,9452.00
2018-09-28T08:54:24.155Z,11880.00
2018-09-28T08:55:24.034Z,12760.00
2018-09-28T08:57:16.734Z,11884.00
2018-09-28T08:58:16.611Z,11492.00
2018-09-28T09:00:09.290Z,11628.00
2018-09-28T09:01:09.195Z,11004.00
2018-09-28T09:03:01.879Z,10760.00
2018-09-28T09:04:01.754Z,9860.00
2018-09-28T09:05:54.431Z,7708.00
2018-09-28T09:06:54.331Z,7988.00
2018-09-28T09:08:47.027Z,7532.00
2018-09-28T09:09:46.900Z,6880.00
2018-09-28T09:11:39.583Z,7648.00
2018-09-28T09:12:39.472Z,7576.00
2018-09-28T09:14:32.662Z,7484.00
2018-09-28T09:15:32.544Z,7472.00
2018-09-28T09:17:25.229Z,7136.00
2018-09-28T09:18:25.223Z,6816.00
2018-09-28T09:20:18.279Z,6016.00
2018-09-28T09:21:18.182Z,6472.00
2018-09-28T09:23:10.868Z,7900.00
2018-09-28T09:24:10.750Z,8472.00
2018-09-28T09:26:03.419Z,8584.00
2018-09-28T09:27:03.320Z,9144.00
2018-09-28T09:28:56.004Z,8168.00
2018-09-28T09:29:55.885Z,7492.00
2018-09-28T09:31:48.559Z,7100.00
2018-09-28T09:32:48.455Z,7080.00
2018-09-28T09:34:41.163Z,7388.00
2018-09-28T09:35:41.033Z,8140.00
2018-09-28T09:37:33.727Z,9660.00
2018-09-28T09:38:33.616Z,9808.00
2018-09-28T09:40:26.283Z,9268.00
2018-09-28T09:41:26.173Z,9400.00
2018-09-28T09:43:18.870Z,9332.00
2018-09-28T09:44:18.748Z,9240.00
2018-09-28T09:46:11.420Z,9636.00
2018-09-28T09:47:11.313Z,10000.00
2018-09-28T09:49:04.013Z,10456.00
2018-09-28T09:50:03.893Z,10568.00
2018-09-28T09:51:56.566Z,10272.00
2018-09-28T09:52:56.462Z,10284.00
2018-09-28T09:54:49.153Z,10220.00
2018-09-28T09:55:49.033Z,10156.00
2018-09-28T09:57:41.746Z,10532.00
2018-09-28T09:58:41.609Z,10692.00
2018-09-28T10:00:34.279Z,11452.00
2018-09-28T10:01:34.182Z,11748.00
2018-09-28T10:03:26.871Z,11476.00
2018-09-28T10:04:26.755Z,11956.00
2018-09-28T10:06:19.928Z,13412.00
2018-09-28T10:07:19.818Z,14176.00
2018-09-28T10:09:12.515Z,13872.00
2018-09-28T10:10:12.389Z,13400.00
2018-09-28T10:12:05.069Z,12704.00
2018-09-28T10:13:04.968Z,12392.00
2018-09-28T10:14:57.678Z,11728.00
2018-09-28T10:15:57.541Z,10632.00
2018-09-28T10:17:50.251Z,11008.00
2018-09-28T10:18:50.158Z,11516.00
2018-09-28T10:20:42.839Z,11764.00
2018-09-28T10:21:42.717Z,11648.00
2018-09-28T10:23:35.434Z,12008.00
2018-09-28T10:24:35.289Z,12108.00
2018-09-28T10:26:29.532Z,11516.00
2018-09-28T10:27:27.997Z,11532.00
2018-09-28T10:29:20.571Z,11796.00
2018-09-28T10:30:23.604Z,11432.00
2018-09-28T10:32:13.128Z,10856.00
2018-09-28T10:33:13.021Z,10016.00
2018-09-28T10:35:06.693Z,7884.00
2018-09-28T10:36:05.629Z,7420.00
2018-09-28T10:37:58.348Z,6740.00
2018-09-28T10:38:58.209Z,6556.00
2018-09-28T10:40:53.064Z,6660.00
2018-09-28T10:41:51.466Z,6496.00
2018-09-28T10:43:44.155Z,7200.00
2018-09-28T10:44:44.037Z,6856.00
2018-09-28T10:46:36.729Z,7936.00
2018-09-28T10:47:36.620Z,8524.00
2018-09-28T10:49:29.303Z,9152.00
2018-09-28T10:50:29.182Z,9528.00
2018-09-28T10:52:22.027Z,10224.00
2018-09-28T10:53:21.752Z,10704.00
2018-09-28T10:55:14.505Z,11616.00
2018-09-28T10:56:14.327Z,11988.00
2018-09-28T10:58:07.029Z,12016.00
2018-09-28T10:59:06.905Z,11800.00
2018-09-28T11:00:59.599Z,11648.00
2018-09-28T11:01:59.476Z,11856.00
2018-09-28T11:03:52.169Z,12864.00
2018-09-28T11:04:52.048Z,13940.00
2018-09-28T11:06:44.732Z,13916.00
2018-09-28T11:07:44.624Z,13580.00
2018-09-28T11:09:37.345Z,12404.00
2018-09-28T11:10:37.224Z,11732.00
2018-09-28T11:12:29.883Z,12880.00
2018-09-28T11:13:29.782Z,13308.00
2018-09-28T11:15:22.489Z,14032.00
2018-09-28T11:16:22.363Z,14264.00
2018-09-28T11:18:15.048Z,13984.00
2018-09-28T11:19:14.950Z,13736.00
2018-09-28T11:21:07.661Z,13136.00
2018-09-28T11:22:07.517Z,12852.00
2018-09-28T11:24:00.215Z,12552.00
2018-09-28T11:25:00.095Z,12156.00
2018-09-28T11:26:52.780Z,11548.00
2018-09-28T11:27:52.677Z,10888.00
2018-09-28T11:29:45.376Z,8728.00
2018-09-28T11:30:45.264Z,8212.00
2018-09-28T11:32:37.935Z,7296.00
2018-09-28T11:33:37.876Z,6212.00
2018-09-28T11:35:30.528Z,6160.00
2018-09-28T11:36:30.411Z,6164.00
2018-09-28T11:38:23.091Z,6052.00
2018-09-28T11:39:23.050Z,6184.00
2018-09-28T11:41:15.690Z,6712.00
2018-09-28T11:42:15.566Z,6604.00
2018-09-28T11:44:08.276Z,6216.00
2018-09-28T11:45:08.200Z,5904.00
2018-09-28T11:47:00.831Z,5252.00
2018-09-28T11:48:00.724Z,5036.00
2018-09-28T11:49:53.418Z,4860.00
2018-09-28T11:50:53.299Z,5124.00
2018-09-28T11:52:45.982Z,5664.00
2018-09-28T11:53:45.869Z,6068.00
2018-09-28T11:55:38.576Z,6440.00
2018-09-28T11:56:38.454Z,6432.00
2018-09-28T11:58:31.139Z,6068.00
2018-09-28T11:59:31.054Z,5812.00
2018-09-28T12:01:23.794Z,5780.00
2018-09-28T12:02:23.670Z,5684.00
2018-09-28T12:04:16.351Z,5212.00
2018-09-28T12:05:16.355Z,5032.00
2018-09-28T12:07:09.007Z,5252.00
2018-09-28T12:08:08.823Z,5436.00
2018-09-28T12:10:01.554Z,5556.00
2018-09-28T12:11:01.415Z,5672.00
2018-09-28T12:12:54.094Z,5664.00
2018-09-28T12:13:53.969Z,5316.00
2018-09-28T12:15:46.710Z,5744.00
2018-09-28T12:16:46.549Z,6000.00
2018-09-28T12:18:39.274Z,6004.00
2018-09-28T12:19:39.120Z,5604.00
2018-09-28T12:21:31.855Z,4648.00
2018-09-28T12:22:31.687Z,4440.00
2018-09-28T12:24:24.441Z,3948.00
2018-09-28T12:25:24.257Z,4140.00
2018-09-28T12:27:16.964Z,4456.00
2018-09-28T12:28:16.850Z,4464.00
2018-09-28T12:30:09.653Z,4372.00
2018-09-28T12:31:09.415Z,4560.00
2018-09-28T12:33:02.086Z,5244.00
2018-09-28T12:34:01.981Z,4916.00
2018-09-28T12:35:54.683Z,4512.00
2018-09-28T12:36:54.552Z,4144.00
2018-09-28T12:38:47.237Z,4436.00
2018-09-28T12:39:47.223Z,4460.00
2018-09-28T12:41:39.827Z,4656.00
2018-09-28T12:42:39.834Z,4896.00
2018-09-28T12:44:32.453Z,5900.00
2018-09-28T12:45:32.321Z,7332.00
2018-09-28T12:47:24.975Z,10272.00
2018-09-28T12:48:24.911Z,11072.00
2018-09-28T12:50:17.598Z,12536.00
2018-09-28T12:51:17.439Z,11768.00
2018-09-28T12:53:10.104Z,9488.00
2018-09-28T12:54:10.045Z,8644.00
2018-09-28T12:56:03.191Z,6716.00
2018-09-28T12:57:03.075Z,6024.00
2018-09-28T12:58:55.759Z,5152.00
2018-09-28T12:59:55.651Z,5068.00
2018-09-28T13:01:48.356Z,5872.00
2018-09-28T13:02:48.305Z,6432.00
2018-09-28T13:04:40.909Z,6756.00
2018-09-28T13:05:40.805Z,6724.00
2018-09-28T13:07:33.586Z,7180.00
2018-09-28T13:08:34.165Z,7400.00
2018-09-28T13:10:26.141Z,7868.00
2018-09-28T13:11:26.040Z,8468.00
2018-09-28T13:13:18.741Z,8888.00
2018-09-28T13:14:18.725Z,8632.00
2018-09-28T13:16:11.315Z,7576.00
2018-09-28T13:17:11.206Z,7000.00
2018-09-28T13:19:03.875Z,6088.00
2018-09-28T13:20:03.769Z,5956.00
2018-09-28T13:21:56.686Z,6268.00
2018-09-28T13:22:56.566Z,6864.00
2018-09-28T13:24:49.405Z,8236.00
2018-09-28T13:25:49.141Z,9000.00
2018-09-28T13:27:41.834Z,9372.00
2018-09-28T13:28:41.710Z,8732.00
2018-09-28T13:30:34.410Z,7568.00
2018-09-28T13:31:34.287Z,6724.00
2018-09-28T13:33:26.983Z,6140.00
2018-09-28T13:34:26.862Z,6064.00
2018-09-28T13:36:19.597Z,5172.00
2018-09-28T13:37:19.434Z,4968.00
2018-09-28T13:39:12.200Z,4972.00
2018-09-28T13:40:12.012Z,5172.00
2018-09-28T13:42:04.702Z,5976.00
2018-09-28T13:43:04.586Z,6464.00
2018-09-28T13:44:57.309Z,6896.00
2018-09-28T13:45:57.211Z,7040.00
2018-09-28T13:47:49.866Z,6556.00
2018-09-28T13:48:49.820Z,5796.00
2018-09-28T13:50:42.480Z,4428.00
2018-09-28T13:51:42.325Z,3668.00
2018-09-28T13:53:35.022Z,2884.00
2018-09-28T13:54:34.918Z,2776.00
2018-09-28T13:56:27.588Z,2720.00
2018-09-28T13:57:27.465Z,2764.00
2018-09-28T13:59:20.143Z,3224.00
2018-09-28T14:00:20.098Z,3848.00
2018-09-28T14:02:12.733Z,3744.00
2018-09-28T14:03:12.598Z,3728.00
2018-09-28T14:05:05.283Z,3672.00
2018-09-28T14:06:05.222Z,3672.00
2018-09-28T14:07:57.872Z,3664.00
2018-09-28T14:08:57.744Z,3688.00
2018-09-28T14:10:50.481Z,3728.00
2018-09-28T14:11:50.316Z,3752.00
2018-09-28T14:13:43.003Z,3812.00
2018-09-28T14:14:42.901Z,3852.00
2018-09-28T14:16:35.637Z,3864.00
2018-09-28T14:17:35.458Z,3796.00
2018-09-28T14:19:28.136Z,3680.00
2018-09-28T14:20:28.156Z,3628.00
2018-09-28T14:22:21.220Z,3440.00
2018-09-28T14:23:21.096Z,3360.00
2018-09-28T14:25:13.776Z,3340.00
2018-09-28T14:26:13.713Z,3360.00
2018-09-28T14:28:06.443Z,3436.00
2018-09-28T14:29:06.247Z,3460.00
2018-09-28T14:30:58.910Z,3380.00
2018-09-28T14:31:58.810Z,3292.00
2018-09-28T14:33:51.813Z,3144.00
2018-09-28T14:34:51.488Z,3104.00
2018-09-28T14:36:44.133Z,2676.00
2018-09-28T14:37:43.961Z,2896.00
2018-09-28T14:39:36.622Z,3080.00
2018-09-28T14:40:36.540Z,3084.00
2018-09-28T14:42:29.270Z,3096.00
2018-09-28T14:43:29.088Z,3100.00
2018-09-28T14:45:21.773Z,3124.00
2018-09-28T14:46:21.729Z,3136.00
2018-09-28T14:48:14.387Z,3176.00
2018-09-28T14:49:14.298Z,3092.00
2018-09-28T14:51:06.912Z,2984.00
2018-09-28T14:52:06.808Z,2552.00
2018-09-28T14:53:59.544Z,2264.00
2018-09-28T14:54:59.497Z,2196.00
2018-09-28T14:56:52.069Z,2296.00
2018-09-28T14:57:51.942Z,2380.00
2018-09-28T14:59:44.621Z,3124.00
2018-09-28T15:00:44.631Z,3236.00
2018-09-28T15:02:37.226Z,3780.00
2018-09-28T15:03:37.103Z,4256.00
2018-09-28T15:05:29.766Z,5296.00
2018-09-28T15:06:29.689Z,5748.00
2018-09-28T15:08:22.450Z,5312.00
2018-09-28T15:09:22.237Z,5084.00
2018-09-28T15:11:14.901Z,4848.00
2018-09-28T15:12:14.861Z,4412.00
2018-09-28T15:14:07.498Z,4160.00
2018-09-28T15:15:07.373Z,4060.00
2018-09-28T15:17:01.068Z,3968.00
2018-09-28T15:18:00.950Z,3568.00
2018-09-28T15:19:53.646Z,3520.00
2018-09-28T15:20:53.520Z,3068.00
2018-09-28T15:22:46.207Z,3288.00
2018-09-28T15:23:46.089Z,3192.00
2018-09-28T15:25:38.763Z,2712.00
2018-09-28T15:26:38.655Z,2328.00
2018-09-28T15:28:31.344Z,2124.00
2018-09-28T15:29:31.249Z,2088.00
2018-09-28T15:31:23.902Z,2016.00
2018-09-28T15:32:23.788Z,1976.00
2018-09-28T15:34:16.477Z,1912.00
2018-09-28T15:35:16.357Z,1888.00
2018-09-28T15:37:09.036Z,1832.00
2018-09-28T15:38:08.922Z,1796.00
2018-09-28T15:40:01.610Z,1764.00
2018-09-28T15:41:01.487Z,1756.00
2018-09-28T15:42:54.181Z,1744.00
2018-09-28T15:43:54.052Z,1740.00
2018-09-28T15:45:46.727Z,1748.00
2018-09-28T15:46:46.616Z,1764.00
2018-09-28T15:48:39.318Z,1772.00
2018-09-28T15:49:39.223Z,1808.00
2018-09-28T15:51:31.860Z,1864.00
2018-09-28T15:52:31.751Z,1800.00
2018-09-28T15:54:24.434Z,1896.00
2018-09-28T15:55:24.313Z,1928.00
2018-09-28T15:57:16.983Z,1944.00
2018-09-28T15:58:16.875Z,1936.00
2018-09-28T16:00:09.591Z,1920.00
2018-09-28T16:01:09.440Z,1908.00
2018-09-28T16:03:02.141Z,1892.00
2018-09-28T16:04:02.019Z,1880.00
2018-09-28T16:05:54.850Z,1860.00
2018-09-28T16:06:54.581Z,1864.00
2018-09-28T16:08:47.268Z,1980.00
2018-09-28T16:09:47.153Z,2012.00
2018-09-28T16:11:39.814Z,1924.00
2018-09-28T16:12:39.713Z,1964.00
2018-09-28T16:14:32.396Z,1976.00
2018-09-28T16:15:32.272Z,1884.00
2018-09-28T16:17:24.945Z,1764.00
2018-09-28T16:18:24.836Z,1716.00
2018-09-28T16:20:17.526Z,1564.00
2018-09-28T16:21:17.408Z,1508.00
2018-09-28T16:23:10.099Z,1408.00
2018-09-28T16:24:09.975Z,1380.00
2018-09-28T16:26:02.652Z,1272.00
2018-09-28T16:27:02.542Z,1244.00
2018-09-28T16:28:55.233Z,1196.00
2018-09-28T16:29:55.118Z,1184.00
2018-09-28T16:31:47.780Z,1160.00
2018-09-28T16:32:47.676Z,1152.00
2018-09-28T16:34:40.364Z,1124.00
2018-09-28T16:35:40.271Z,1104.00
2018-09-28T16:37:32.908Z,1064.00
2018-09-28T16:38:32.803Z,1044.00
2018-09-28T16:40:25.489Z,1000.00
2018-09-28T16:41:25.367Z,976.00
2018-09-28T16:43:18.047Z,932.00
2018-09-28T16:44:17.927Z,912.00
2018-09-28T16:46:10.602Z,872.00
2018-09-28T16:47:10.485Z,848.00
2018-09-28T16:49:03.176Z,808.00
2018-09-28T16:50:03.049Z,784.00
2018-09-28T16:51:55.721Z,740.00
2018-09-28T16:52:55.610Z,712.00
2018-09-28T16:54:48.449Z,668.00
2018-09-28T16:55:48.176Z,640.00
2018-09-28T16:57:40.894Z,584.00
2018-09-28T16:58:40.749Z,556.00
2018-09-28T17:00:33.423Z,508.00
2018-09-28T17:01:33.299Z,484.00
2018-09-28T17:03:25.994Z,432.00
2018-09-28T17:04:25.863Z,408.00
2018-09-28T17:06:18.535Z,364.00
2018-09-28T17:07:18.423Z,336.00
2018-09-28T17:09:11.220Z,296.00
2018-09-28T17:10:10.983Z,276.00
2018-09-28T17:12:03.654Z,236.00
2018-09-28T17:13:03.542Z,216.00
2018-09-28T17:14:56.228Z,180.00
2018-09-28T17:15:56.103Z,164.00
2018-09-28T17:17:48.768Z,136.00
2018-09-28T17:18:48.653Z,120.00
2018-09-28T17:20:41.350Z,100.00
2018-09-28T17:21:41.220Z,88.00
2018-09-28T17:23:33.904Z,68.00
2018-09-28T17:24:33.784Z,60.00
2018-09-28T17:26:26.468Z,44.00
2018-09-28T17:27:26.342Z,56.00
2018-09-28T17:29:19.028Z,44.00
2018-09-28T17:30:18.899Z,40.00
2018-09-28T17:32:11.570Z,32.00
2018-09-28T17:33:11.494Z,32.00
2018-09-28T17:35:04.209Z,28.00
2018-09-28T17:36:04.021Z,24.00
2018-09-28T17:37:56.690Z,20.00
2018-09-28T17:38:56.577Z,20.00
2018-09-28T17:40:49.420Z,20.00
2018-09-28T17:41:49.141Z,20.00
2018-09-28T17:43:41.819Z,16.00
2018-09-28T17:44:41.706Z,20.00
2018-09-28T17:46:34.398Z,16.00
2018-09-28T17:47:34.273Z,16.00
2018-09-28T17:49:26.951Z,16.00
2018-09-28T17:50:26.839Z,16.00
2018-09-28T17:52:19.500Z,16.00
2018-09-28T17:53:19.392Z,16.00
2018-09-28T17:55:12.088Z,16.00
2018-09-28T17:56:11.963Z,20.00
2018-09-28T17:58:04.649Z,20.00
2018-09-28T17:59:04.538Z,20.00
2018-09-28T18:00:57.222Z,20.00
2018-09-28T18:01:57.121Z,20.00
2018-09-28T18:03:49.767Z,20.00
2018-09-28T18:04:49.651Z,20.00
2018-09-28T18:06:42.435Z,20.00
2018-09-28T18:07:42.271Z,16.00
2018-09-28T18:09:34.907Z,20.00
2018-09-28T18:10:34.780Z,20.00
2018-09-28T18:12:27.537Z,20.00
2018-09-28T18:13:27.337Z,20.00
2018-09-28T18:15:20.034Z,16.00
2018-09-28T18:16:19.905Z,16.00
2018-09-28T18:18:12.574Z,16.00
2018-09-28T18:19:12.473Z,16.00
2018-09-28T18:21:05.166Z,16.00
2018-09-28T18:22:05.037Z,16.00
2018-09-28T18:23:57.701Z,16.00
2018-09-28T18:24:57.587Z,16.00
2018-09-28T18:26:50.270Z,16.00
2018-09-28T18:27:50.147Z,16.00
2018-09-28T18:29:42.830Z,16.00
2018-09-28T18:30:42.704Z,20.00
2018-09-28T18:32:35.412Z,16.00
2018-09-28T18:33:35.359Z,16.00
2018-09-28T18:35:27.997Z,16.00
2018-09-28T18:36:27.872Z,16.00
2018-09-28T18:38:20.537Z,16.00
2018-09-28T18:39:20.436Z,16.00
2018-09-28T18:41:13.137Z,16.00
2018-09-28T18:42:13.123Z,16.00
2018-09-28T18:44:06.172Z,16.00
2018-09-28T18:45:06.056Z,16.00
2018-09-28T18:46:58.744Z,16.00
2018-09-28T18:47:58.611Z,16.00
2018-09-28T18:49:51.328Z,16.00
2018-09-28T18:50:51.183Z,20.00
2018-09-28T18:52:44.000Z,16.00
2018-09-28T18:53:43.735Z,16.00
2018-09-28T18:55:36.416Z,16.00
2018-09-28T18:56:36.296Z,16.00
2018-09-28T18:58:28.957Z,20.00
2018-09-28T18:59:28.856Z,20.00
2018-09-28T19:01:21.530Z,16.00
2018-09-28T19:02:21.411Z,20.00
2018-09-28T19:04:14.087Z,20.00
2018-09-28T19:05:13.980Z,20.00
2018-09-28T19:07:06.660Z,16.00
2018-09-28T19:08:06.541Z,16.00
2018-09-28T19:09:59.207Z,20.00
2018-09-28T19:10:59.102Z,16.00
2018-09-28T19:12:51.853Z,16.00
2018-09-28T19:13:51.665Z,16.00
2018-09-28T19:15:44.349Z,16.00
2018-09-28T19:16:44.232Z,16.00
2018-09-28T19:18:36.902Z,16.00
2018-09-28T19:19:36.785Z,16.00
2018-09-28T19:21:29.534Z,16.00
2018-09-28T19:22:29.346Z,16.00
2018-09-28T19:24:22.014Z,16.00
2018-09-28T19:25:21.893Z,16.00
2018-09-28T19:27:14.586Z,16.00
2018-09-28T19:28:14.460Z,16.00
2018-09-28T19:30:07.123Z,20.00
2018-09-28T19:31:07.026Z,20.00
2018-09-28T19:32:59.699Z,20.00
2018-09-28T19:33:59.569Z,16.00
2018-09-28T19:35:52.271Z,16.00
2018-09-28T19:36:52.132Z,16.00
2018-09-28T19:38:44.800Z,16.00
2018-09-28T19:39:44.683Z,16.00
2018-09-28T19:41:37.371Z,16.00
2018-09-28T19:42:37.241Z,16.00
2018-09-28T19:44:29.902Z,16.00
2018-09-28T19:45:29.796Z,16.00
2018-09-28T19:47:22.484Z,16.00
2018-09-28T19:48:22.353Z,16.00
2018-09-28T19:50:15.030Z,16.00
2018-09-28T19:51:14.910Z,16.00
2018-09-28T19:53:07.589Z,16.00
2018-09-28T19:54:07.471Z,16.00
2018-09-28T19:56:00.159Z,16.00
2018-09-28T19:57:00.022Z,16.00
2018-09-28T19:58:52.700Z,16.00
2018-09-28T19:59:52.584Z,16.00
2018-09-28T20:01:45.273Z,16.00
2018-09-28T20:02:45.133Z,16.00
2018-09-28T20:04:37.878Z,16.00
2018-09-28T20:05:37.727Z,16.00
2018-09-28T20:07:30.368Z,16.00
2018-09-28T20:08:30.246Z,16.00
2018-09-28T20:10:22.906Z,16.00
2018-09-28T20:11:22.798Z,16.00
2018-09-28T20:13:15.478Z,16.00
2018-09-28T20:14:15.351Z,16.00
2018-09-28T20:16:08.319Z,16.00
2018-09-28T20:17:07.912Z,20.00
2018-09-28T20:19:00.609Z,20.00
2018-09-28T20:20:00.460Z,16.00
2018-09-28T20:21:53.205Z,16.00
2018-09-28T20:22:53.066Z,16.00
2018-09-28T20:24:45.732Z,16.00
2018-09-28T20:25:45.619Z,16.00
2018-09-28T20:27:38.305Z,16.00
2018-09-28T20:28:38.181Z,16.00
2018-09-28T20:30:30.839Z,16.00
2018-09-28T20:31:30.732Z,16.00
2018-09-28T20:33:23.410Z,16.00
2018-09-28T20:34:23.288Z,16.00
2018-09-28T20:36:15.970Z,16.00
2018-09-28T20:37:15.834Z,16.00
2018-09-28T20:39:08.509Z,16.00
2018-09-28T20:40:08.459Z,16.00
2018-09-28T20:42:01.583Z,20.00
2018-09-28T20:43:01.450Z,16.00
2018-09-28T20:44:54.611Z,20.00
2018-09-28T20:45:54.504Z,16.00
2018-09-28T20:47:47.183Z,16.00
2018-09-28T20:48:47.083Z,20.00
2018-09-28T20:50:39.713Z,16.00
2018-09-28T20:51:39.609Z,16.00
2018-09-28T20:53:32.296Z,16.00
2018-09-28T20:54:32.169Z,16.00
2018-09-28T20:56:24.844Z,16.00
2018-09-28T20:57:24.724Z,16.00
2018-09-28T20:59:17.416Z,16.00
2018-09-28T21:00:17.290Z,16.00
2018-09-28T21:02:09.986Z,16.00
2018-09-28T21:03:09.855Z,16.00
2018-09-28T21:05:02.517Z,16.00
2018-09-28T21:06:02.403Z,20.00
2018-09-28T21:07:55.097Z,20.00
2018-09-28T21:08:54.967Z,20.00
2018-09-28T21:10:47.834Z,16.00
2018-09-28T21:11:47.610Z,20.00
2018-09-28T21:13:40.323Z,16.00
2018-09-28T21:14:40.157Z,20.00
2018-09-28T21:16:32.828Z,20.00
2018-09-28T21:17:32.711Z,20.00
2018-09-28T21:19:25.393Z,20.00
2018-09-28T21:20:25.266Z,16.00
2018-09-28T21:22:17.961Z,16.00
2018-09-28T21:23:17.818Z,16.00
2018-09-28T21:25:10.486Z,16.00
2018-09-28T21:26:10.372Z,16.00
2018-09-28T21:28:03.055Z,16.00
2018-09-28T21:29:02.944Z,20.00
2018-09-28T21:30:55.595Z,20.00
2018-09-28T21:31:55.481Z,20.00
2018-09-28T21:33:48.162Z,16.00
2018-09-28T21:34:48.033Z,20.00
2018-09-28T21:36:41.206Z,20.00
2018-09-28T21:37:40.786Z,20.00
2018-09-28T21:39:33.468Z,20.00
2018-09-28T21:40:33.340Z,20.00
2018-09-28T21:42:26.028Z,20.00
2018-09-28T21:43:25.896Z,20.00
2018-09-28T21:45:18.559Z,20.00
2018-09-28T21:46:18.452Z,20.00
2018-09-28T21:48:11.139Z,20.00